Terminal Aerodrome Forecast
Issued by NWS

Home | Current Version | Previous Version | Text Only | Print | Product List | Glossary On
Versions: 1 2 3 4 5 6 7 8 9 10 11 12 13 14 15 16 17 18 19 20 21 22 23 24 25 26 27 28 29 30 31
000
FTUS45 KBOI 272146 AAA
TAFJER
TAF AMD
KJER 272146Z 2722/2818 12005KT P6SM BKN035 OVC090
     FM280600 05015G25KT P6SM -SHRA OVC035
     FM281200 04020G30KT P6SM VCSH SCT040 BKN060=

USA.gov is the U.S. government's official web portal to all federal, state and local government web resources and services.